• Join FlightAware (Why Join?)
  • Login
  • US Flag 
01:55AM EDT


 

Airport Tracker/Info


-or-


 

Live Flight TrackerFlight Track Log ✈ UAL4663 ✈ 14-Apr-2013 ✈ KRDU - KEWR

Flight Track Log - Related Links

Times and Time Zones

All times are in EDT time to prevent confusion due to time zone crossing. See the UAL4663 flight status page for this flight to view local times or setup timezone preferences in your user account.

Time Position Orientation Groundspeed Altitude Reporting Facility
EDT Latitude Longitude Course Direction KTS MPH feet Rate Location/Type
08:25PM 35.8414 -78.8975 250° West 218 251 4,500  Level Washington Center
08:26PM 36.1195 -78.6833 North  Level FlightAware Approximate
08:26PM 35.8664 -78.9703 293° West 229 264 7,100  Level Washington Center
08:27PM 36.2045 -78.6528 19° North  Level FlightAware Approximate
08:27PM 35.9369 -78.9861 350° North 216 249 8,900  Level Washington Center
08:28PM 36.2896 -78.6201 15° North  Level FlightAware Approximate
08:28PM 36.0053 -78.9247 36° Northeast 218 251 10,400  Level Washington Center
08:29PM 36.3761 -78.5935 11° North  Level FlightAware Approximate
08:29PM 36.0844 -78.8614 33° Northeast 273 314 11,700  Level Washington Center
08:30PM 36.1694 -78.7981 31° Northeast 326 375 13,200 1,380 Climbing Washington Center
08:31PM 36.2567 -78.7344 30° Northeast 362 417 14,500 1,140 Climbing Washington Center
08:32PM 36.3375 -78.6811 28° Northeast 368 423 15,500 1,020 Climbing Washington Center
08:33PM 36.4414 -78.6103 29° Northeast 368 423 16,600 1,020 Climbing Washington Center
08:34PM 36.5392 -78.5392 30° Northeast 381 438 17,600 900 Climbing Washington Center
08:35PM 36.6369 -78.4703 29° Northeast 391 450 18,500 900 Climbing Washington Center
08:36PM 36.7239 -78.4036 32° Northeast 397 457 19,400 900 Climbing Washington Center
08:37PM 36.8300 -78.3347 27° Northeast 409 471 20,400 1,020 Climbing Washington Center
08:38PM 36.9339 -78.2578 31° Northeast 421 484 21,500 1,080 Climbing Washington Center
08:39PM 37.0525 -78.1736 30° Northeast 433 498 22,600 960 Climbing Washington Center
08:40PM 37.1458 -78.1036 31° Northeast 433 498 23,500 900 Climbing Washington Center
08:41PM 37.2558 -78.0264 29° Northeast 433 498 24,500 960 Climbing Washington Center
08:42PM 37.3658 -77.9461 30° Northeast 439 505 25,500 960 Climbing Washington Center
08:43PM 37.4739 -77.8686 30° Northeast 446 513 26,500 720 Climbing Washington Center
08:44PM 37.5819 -77.7800 33° Northeast 451 519 27,000 240 Climbing Washington Center
08:45PM 37.6878 -77.6833 36° Northeast 462 532 27,000  Level Washington Center
08:46PM 37.7981 -77.5839 35° Northeast 477 549 27,000  Level Washington Center
08:47PM 37.9081 -77.4814 36° Northeast 483 556 27,000  Level Washington Center
08:48PM 38.0203 -77.3789 36° Northeast 483 556 27,000  Level Washington Center
08:49PM 38.1344 -77.2758 35° Northeast 488 562 27,000  Level Washington Center
08:50PM 38.2483 -77.1728 35° Northeast 494 568 27,000  Level Washington Center
08:51PM 38.3603 -77.0692 36° Northeast 494 568 27,000  Level Washington Center
08:52PM 38.4739 -76.9653 36° Northeast 500 575 27,000  Level Washington Center
08:53PM 38.5878 -76.8586 36° Northeast 500 575 27,000  Level Washington Center
08:54PM 38.6972 -76.7514 37° Northeast 494 568 27,000  Level Washington Center
08:55PM 38.8025 -76.6358 41° Northeast 494 568 27,000  Level Washington Center
08:56PM 38.9056 -76.5144 42° Northeast 494 568 27,000  Level Washington Center
08:57PM 39.0086 -76.3983 41° Northeast 494 568 27,000  Level Washington Center
08:58PM 39.1136 -76.2764 42° Northeast 494 568 27,000  Level Washington Center
08:59PM 39.2267 -76.1436 42° Northeast 499 574 27,000  Level Washington Center
09:00PM 39.3314 -76.0208 42° Northeast 499 574 27,000 -420 Level Washington Center
09:01PM 39.4319 -75.9006 43° Northeast 494 568 26,200 -1,200 Descending Washington Center
09:02PM 39.5342 -75.7825 42° Northeast 494 568 24,600 -1,920 Descending Washington Center
09:03PM 39.6281 -75.6722 42° Northeast 481 554 22,400 -2,400 Descending Washington Center
09:04PM 39.7219 -75.5592 43° Northeast 468 539 19,900 -2,280 Descending Washington Center
09:05PM 39.8011 -75.4619 43° Northeast 454 522 17,900 -2,040 Descending Washington Center
09:06PM 39.8842 -75.3617 43° Northeast 424 488 15,900 -2,040 Descending Washington Center
09:07PM 39.9631 -75.2667 43° Northeast 398 458 13,900 -1,800 Descending Washington Center
09:08PM 40.0400 -75.1714 43° Northeast 386 444 12,300 -1,500 Descending Washington Center
09:09PM 40.1144 -75.0789 44° Northeast 374 430 11,000 -1,080 Descending Washington Center
09:10PM 40.1808 -74.9969 43° Northeast 348 400 10,200 -1,200 Descending Washington Center
09:11PM 40.2333 -74.9500 34° Northeast 294 338 9,000 -1,260 Descending New York TRACON
09:12PM 40.2833 -74.8667 52° Northeast 282 325 8,100 -540 Descending New York TRACON
09:13PM 40.3333 -74.6833 70° East 311 358 7,600 -600 Descending New York TRACON
09:14PM 40.3500 -74.5667 79° East 289 333 6,400 -1,140 Descending New York TRACON
09:16PM 40.3667 -74.4667 78° East 276 318 5,300 -960 Descending New York TRACON
09:16PM 40.3833 -74.3833 75° East 271 312 4,500 -900 Descending New York TRACON
09:17PM 40.4333 -74.3333 37° Northeast 257 296 3,700 -660 Descending New York TRACON
09:19PM 40.5000 -74.2833 30° Northeast 208 239 3,200 -300 Descending New York TRACON
09:20PM 40.5500 -74.2667 14° North 187 215 3,100 -540 Descending New York TRACON
09:20PM 40.5833 -74.2333 37° Northeast 183 211 2,200 -1,020 Descending New York TRACON